Time;durP1;ratioP1;P1;durP2;ratioP2;P2;SDS_P1;SDS_P2;PMS_P1;PMS_P2;Temp;Humidity;BMP_temperature;BMP_pressure;BME280_temperature;BME280_humidity;BME280_pressure;Samples;Min_cycle;Max_cycle;Signal;HPM_P1;HPM_P2
2023/07/14 00:00:41;;;;;;;7.95;3.15;;;17.60;88.50;;;18.53;62.93;100748.91;4897212;29;20091;-81
2023/07/14 00:03:11;;;;;;;7.97;2.97;;;17.60;88.50;;;18.51;62.96;100753.75;4894517;29;20048;-81
2023/07/14 00:05:40;;;;;;;5.70;2.80;;;17.60;88.60;;;18.50;63.15;100752.13;4900241;29;20036;-81
2023/07/14 00:08:18;;;;;;;5.15;2.67;;;17.60;88.80;;;18.48;63.24;100748.84;4889551;29;20072;-81
2023/07/14 00:10:45;;;;;;;4.85;2.85;;;17.50;88.90;;;18.48;63.26;100751.56;4905333;29;20049;-81
2023/07/14 00:13:16;;;;;;;7.38;2.83;;;17.60;89.10;;;18.47;63.32;100749.94;4912909;29;20160;-81
2023/07/14 00:15:44;;;;;;;6.90;2.80;;;17.60;89.10;;;18.47;63.48;100744.53;4899504;29;20036;-81
2023/07/14 00:18:20;;;;;;;5.93;2.92;;;17.60;89.10;;;18.48;63.54;100738.06;4899168;29;20041;-81
2023/07/14 00:20:47;;;;;;;6.80;3.10;;;17.60;89.20;;;18.48;63.68;100735.34;4913447;29;20112;-80
2023/07/14 00:23:16;;;;;;;5.65;2.67;;;17.60;89.20;;;18.48;63.70;100729.13;4898089;29;20422;-80
2023/07/14 00:25:43;;;;;;;6.28;2.80;;;17.50;89.20;;;18.47;63.66;100725.63;4906121;29;20053;-81
2023/07/14 00:28:20;;;;;;;5.40;3.00;;;17.60;89.30;;;18.45;63.49;100724.28;4898676;29;20048;-81
2023/07/14 00:30:48;;;;;;;6.70;3.10;;;17.50;89.30;;;18.43;63.73;100721.81;4912122;29;20114;-81
2023/07/14 00:33:18;;;;;;;5.32;3.13;;;17.50;89.60;;;18.44;63.71;100718.03;4915598;29;20044;-81
2023/07/14 00:35:47;;;;;;;7.80;2.92;;;17.50;89.50;;;18.43;64.13;100719.09;4914857;29;20096;-81
2023/07/14 00:38:15;;;;;;;8.45;3.38;;;17.60;89.60;;;18.44;63.82;100720.72;4898992;29;20051;-80
2023/07/14 00:40:45;;;;;;;8.52;2.72;;;17.60;89.40;;;18.42;63.80;100725.59;4898918;29;20040;-80
2023/07/14 00:43:19;;;;;;;7.30;3.63;;;17.60;89.40;;;18.42;63.58;100722.06;4898148;29;20051;-81
2023/07/14 00:45:51;;;;;;;7.68;3.08;;;17.60;89.30;;;18.40;63.87;100721.53;4921310;29;20111;-81
2023/07/14 00:48:23;;;;;;;8.48;3.10;;;17.50;89.50;;;18.39;63.81;100714.47;4918229;29;20108;-81
2023/07/14 00:50:56;;;;;;;7.40;3.38;;;17.50;89.50;;;18.39;64.13;100714.47;4898423;29;20474;-81
2023/07/14 00:53:30;;;;;;;11.93;3.20;;;17.50;89.80;;;18.37;64.04;100711.22;4912250;29;20072;-81
2023/07/14 00:56:04;;;;;;;7.07;3.03;;;17.50;90.00;;;18.37;64.59;100709.34;4896793;29;20832;-81
2023/07/14 00:58:33;;;;;;;5.07;3.10;;;17.50;90.20;;;18.36;64.50;100710.41;4896542;29;20136;-81
2023/07/14 01:01:10;;;;;;;4.82;3.20;;;17.50;90.30;;;18.36;64.54;100715.81;4887054;29;20048;-81
2023/07/14 01:03:42;;;;;;;8.05;3.00;;;17.50;90.40;;;18.37;64.63;100713.94;4885687;29;20694;-81
2023/07/14 01:06:17;;;;;;;9.82;3.83;;;17.50;90.50;;;18.35;64.82;100711.50;4892003;29;20052;-81
2023/07/14 01:08:52;;;;;;;4.82;3.00;;;17.50;90.50;;;18.33;64.70;100705.50;4895723;29;20108;-81
2023/07/14 01:11:25;;;;;;;9.02;3.40;;;17.50;90.40;;;18.34;64.35;100709.03;4896700;29;20048;-81
2023/07/14 01:13:54;;;;;;;7.25;2.80;;;17.50;90.30;;;18.31;64.48;100707.66;4897804;29;20076;-81
2023/07/14 01:16:22;;;;;;;5.93;2.80;;;17.40;90.00;;;18.31;64.39;100701.47;4925929;29;20044;-81
2023/07/14 01:18:50;;;;;;;6.40;2.85;;;17.40;90.00;;;18.28;64.46;100703.59;4907301;29;20119;-81
2023/07/14 01:21:21;;;;;;;5.18;2.83;;;17.50;90.20;;;18.28;64.34;100708.16;4904188;29;20060;-81
2023/07/14 01:24:05;;;;;;;7.25;3.13;;;17.40;90.10;;;18.26;64.44;100705.75;4912360;29;20135;-81
2023/07/14 01:26:54;;;;;;;6.47;3.13;;;17.40;90.10;;;18.25;64.31;100709.50;4896679;29;20049;-81
2023/07/14 01:29:22;;;;;;;5.93;2.90;;;17.40;90.10;;;18.25;64.44;100708.66;4895773;29;20059;-81
2023/07/14 01:31:50;;;;;;;7.22;3.20;;;17.40;89.90;;;18.22;64.07;100707.31;4896694;29;20076;-81
2023/07/14 01:34:18;;;;;;;6.20;3.20;;;17.40;89.80;;;18.24;64.01;100715.16;4912303;29;20120;-81
2023/07/14 01:36:48;;;;;;;5.13;3.20;;;17.40;89.70;;;18.22;63.83;100711.91;4896120;29;20052;-80
2023/07/14 01:39:16;;;;;;;6.38;3.15;;;17.40;89.50;;;18.19;63.99;100709.69;4904189;29;20048;-81
2023/07/14 01:41:44;;;;;;;8.52;2.63;;;17.30;89.50;;;18.17;64.01;100711.84;4896109;29;20083;-81
2023/07/14 01:44:18;;;;;;;7.70;3.10;;;17.30;89.50;;;18.14;63.68;100710.47;4905529;29;20044;-81
2023/07/14 01:46:48;;;;;;;6.38;3.60;;;17.30;89.50;;;18.13;63.98;100716.13;4897718;29;20128;-81
2023/07/14 01:49:37;;;;;;;5.70;3.30;;;17.20;89.70;;;18.09;63.73;100710.41;4896422;29;20052;-81
2023/07/14 01:52:09;;;;;;;5.82;3.10;;;17.20;89.70;;;18.06;63.93;100710.94;4889526;29;20131;-81
2023/07/14 01:54:42;;;;;;;5.60;3.42;;;17.10;89.50;;;18.06;63.81;100704.75;4896175;29;20052;-81
2023/07/14 01:57:16;;;;;;;6.55;2.65;;;17.10;89.70;;;18.05;63.87;100708.47;4916374;29;20135;-81
2023/07/14 01:59:48;;;;;;;4.82;3.17;;;17.10;89.60;;;18.03;63.77;100711.44;4895981;29;20048;-81
2023/07/14 02:02:27;;;;;;;5.47;3.22;;;17.10;89.50;;;18.01;63.72;100706.31;4902626;29;20116;-81
2023/07/14 02:04:54;;;;;;;5.82;3.25;;;17.10;89.40;;;18.00;63.66;100704.66;4910960;29;20086;-81
2023/07/14 02:07:22;;;;;;;10.38;3.30;;;17.10;89.40;;;17.97;63.83;100705.19;4896210;29;20116;-81
2023/07/14 02:09:50;;;;;;;6.97;3.17;;;17.10;89.60;;;17.97;63.74;100707.88;4896880;29;20064;-81
2023/07/14 02:12:29;;;;;;;6.28;3.10;;;17.10;89.60;;;17.97;63.74;100709.78;4909768;29;20453;-81
2023/07/14 02:15:04;;;;;;;6.10;3.15;;;17.10;89.60;;;17.95;63.90;100704.59;4892211;29;20053;-81
2023/07/14 02:17:34;;;;;;;5.63;3.33;;;17.10;89.70;;;17.94;63.75;100700.28;4899832;29;20160;-81
2023/07/14 02:20:06;;;;;;;4.18;2.97;;;17.10;89.70;;;17.92;63.72;100694.34;4905251;29;20125;-81
2023/07/14 02:22:37;;;;;;;5.53;2.83;;;17.10;89.50;;;17.92;63.60;100702.44;4897636;29;20047;-81
2023/07/14 02:25:11;;;;;;;9.57;3.30;;;17.00;89.30;;;17.90;63.54;100695.66;4895555;29;20041;-81
2023/07/14 02:27:40;;;;;;;6.55;3.33;;;17.00;89.30;;;17.89;63.65;100699.41;4902586;29;20044;-80
2023/07/14 02:30:15;;;;;;;6.05;3.47;;;17.00;89.40;;;17.88;63.66;100695.91;4897545;29;20052;-80
2023/07/14 02:32:48;;;;;;;5.22;2.92;;;17.00;89.50;;;17.88;63.67;100697.81;4899065;29;20040;-81
2023/07/14 02:35:29;;;;;;;6.93;3.38;;;17.00;89.70;;;17.87;63.84;100696.19;4896747;29;20144;-80
2023/07/14 02:38:04;;;;;;;6.25;3.22;;;17.00;89.90;;;17.87;64.10;100699.69;4890196;29;20100;-81
2023/07/14 02:40:37;;;;;;;7.03;2.90;;;17.00;90.00;;;17.85;64.35;100693.72;4895771;29;20068;-81
2023/07/14 02:43:09;;;;;;;5.95;3.10;;;17.00;90.00;;;17.84;64.30;100691.28;4898404;29;20048;-80
2023/07/14 02:45:39;;;;;;;;;;;17.00;90.20;;;17.82;64.58;100694.25;4916426;29;20069;-81
2023/07/14 02:48:10;;;;;;;7.05;3.13;;;17.00;90.40;;;17.79;64.48;100683.94;4897147;29;20344;-81
2023/07/14 02:50:37;;;;;;;5.43;3.42;;;17.00;90.40;;;17.78;64.72;100682.31;4897256;29;20052;-80
2023/07/14 02:53:05;;;;;;;6.35;3.30;;;16.90;90.60;;;17.78;64.53;100686.91;4886837;29;20041;-80
2023/07/14 02:55:32;;;;;;;6.63;3.08;;;17.00;90.40;;;17.76;64.61;100689.84;4899349;29;20060;-80
2023/07/14 02:57:59;;;;;;;5.57;3.05;;;16.90;90.40;;;17.78;64.37;100692.31;4893072;29;20052;-81
2023/07/14 03:00:28;;;;;;;5.80;3.25;;;16.90;90.20;;;17.76;64.30;100687.13;4912043;29;20076;-81
2023/07/14 03:02:56;;;;;;;7.20;2.80;;;16.90;90.20;;;17.77;64.45;100679.88;4909357;29;20497;-81
2023/07/14 03:05:23;;;;;;;5.15;2.67;;;17.00;90.20;;;17.78;64.47;100681.50;4915242;29;20072;-81
2023/07/14 03:07:50;;;;;;;4.53;2.78;;;16.90;90.20;;;17.77;64.48;100679.88;4900324;29;20047;-81
2023/07/14 03:10:17;;;;;;;6.65;3.05;;;17.00;90.20;;;17.76;64.28;100681.75;4900036;29;20075;-81
2023/07/14 03:12:45;;;;;;;7.65;3.10;;;17.00;90.00;;;17.75;64.24;100678.22;4907362;29;20599;-80
2023/07/14 03:15:12;;;;;;;6.25;3.15;;;17.00;90.00;;;17.75;64.08;100677.41;4899603;29;20469;-80
2023/07/14 03:17:40;;;;;;;7.05;3.10;;;17.00;90.00;;;17.77;64.31;100674.50;4914968;29;20095;-81
2023/07/14 03:20:11;;;;;;;6.50;2.95;;;17.00;90.00;;;17.76;64.23;100668.25;4899348;29;20509;-81
2023/07/14 03:22:38;;;;;;;7.63;3.25;;;17.00;89.70;;;17.77;64.40;100669.09;4900421;29;20052;-81
2023/07/14 03:25:07;;;;;;;8.73;3.10;;;17.00;89.70;;;17.75;64.29;100672.84;4899651;29;20510;-81
2023/07/14 03:27:34;;;;;;;5.57;2.83;;;17.00;90.00;;;17.74;64.32;100665.00;4901136;29;20044;-81
2023/07/14 03:30:02;;;;;;;5.28;2.78;;;16.90;90.30;;;17.73;64.35;100666.06;4915617;29;20138;-82
2023/07/14 03:32:29;;;;;;;5.78;2.85;;;16.90;90.50;;;17.72;64.27;100669.81;4899124;29;20108;-81
2023/07/14 03:34:58;;;;;;;7.22;3.40;;;16.90;90.40;;;17.71;64.51;100668.16;4914683;29;20108;-81
2023/07/14 03:37:25;;;;;;;7.38;3.42;;;16.90;90.60;;;17.68;64.78;100666.00;4914467;29;20071;-81
2023/07/14 03:39:52;;;;;;;9.07;3.17;;;16.90;90.60;;;17.68;64.64;100666.81;4914300;29;20048;-81
2023/07/14 03:42:19;;;;;;;8.38;3.08;;;16.90;90.50;;;17.70;64.77;100669.25;4903859;29;20055;-81
2023/07/14 03:44:47;;;;;;;6.53;3.38;;;16.90;90.60;;;17.71;64.70;100662.78;4913825;29;20094;-81
2023/07/14 03:47:14;;;;;;;7.07;3.33;;;16.90;90.40;;;17.71;64.88;100657.38;4898644;29;20040;-81
2023/07/14 03:49:41;;;;;;;5.82;3.05;;;16.90;90.50;;;17.72;65.01;100667.13;4909631;29;20045;-81
2023/07/14 03:52:10;;;;;;;10.38;3.78;;;17.00;90.60;;;17.71;65.12;100660.91;4910390;29;20136;-81
2023/07/14 03:54:37;;;;;;;8.85;3.90;;;17.00;90.60;;;17.72;65.08;100664.44;4889530;29;20036;-81
2023/07/14 03:57:05;;;;;;;6.53;3.20;;;17.00;90.60;;;17.73;65.20;100658.78;4899415;29;20076;-81
2023/07/14 03:59:33;;;;;;;8.07;3.70;;;17.00;90.70;;;17.75;65.37;100659.34;4905701;29;20076;-81
2023/07/14 04:02:02;;;;;;;6.80;3.40;;;17.00;90.60;;;17.75;65.64;100655.84;4907819;29;20036;-81
2023/07/14 04:04:30;;;;;;;7.38;3.60;;;17.10;91.00;;;17.77;65.54;100655.59;4897755;29;20045;-81
2023/07/14 04:06:58;;;;;;;8.38;3.38;;;17.10;91.10;;;17.75;65.85;100658.53;4907993;29;20040;-81
2023/07/14 04:09:27;;;;;;;8.55;3.47;;;17.10;91.30;;;17.79;66.05;100664.25;4882055;29;20043;-81
2023/07/14 04:11:54;;;;;;;7.95;3.15;;;17.10;91.60;;;17.79;66.37;100659.66;4898035;29;20104;-81
2023/07/14 04:14:21;;;;;;;9.27;3.67;;;17.10;91.80;;;17.81;66.36;100665.59;4898174;29;20056;-81
2023/07/14 04:16:48;;;;;;;8.93;3.78;;;17.10;91.80;;;17.85;66.75;100663.22;4920725;29;20131;-81
2023/07/14 04:19:16;;;;;;;12.90;4.10;;;17.20;92.00;;;17.89;66.78;100662.47;4910336;29;20041;-81
2023/07/14 04:21:43;;;;;;;5.90;3.15;;;17.20;92.20;;;17.88;67.00;100663.53;4898919;29;20072;-81
2023/07/14 04:24:10;;;;;;;7.32;3.72;;;17.30;92.10;;;17.90;67.01;100663.28;4913047;29;20208;-81
2023/07/14 04:26:39;;;;;;;8.70;3.58;;;17.30;92.10;;;17.90;67.20;100664.06;4896372;29;20702;-81
2023/07/14 04:29:10;;;;;;;10.32;3.42;;;17.30;92.20;;;17.94;66.91;100665.19;4899258;29;20577;-81
2023/07/14 04:31:38;;;;;;;5.97;3.67;;;17.40;92.20;;;17.98;67.08;100665.53;4897118;29;20032;-81
2023/07/14 04:34:05;;;;;;;7.40;3.70;;;17.40;92.20;;;17.99;67.06;100669.84;4898992;29;20053;-81
2023/07/14 04:36:32;;;;;;;8.13;3.42;;;17.40;92.00;;;17.97;66.91;100670.09;4897603;29;20070;-81
2023/07/14 04:39:06;;;;;;;7.63;3.65;;;17.40;91.60;;;17.97;67.46;100670.09;4897336;29;20538;-81
2023/07/14 04:41:34;;;;;;;9.35;3.80;;;17.40;92.00;;;17.97;67.34;100669.28;4902939;29;20072;-81
2023/07/14 04:44:09;;;;;;;7.65;3.78;;;17.40;92.30;;;17.97;67.26;100670.09;4894767;29;20049;-81
2023/07/14 04:46:37;;;;;;;11.10;3.90;;;17.40;92.20;;;17.97;66.91;100670.09;4917420;29;20045;-81
2023/07/14 04:49:04;;;;;;;5.97;3.50;;;17.40;91.60;;;17.96;67.21;100668.47;4909970;29;20113;-81
2023/07/14 04:51:33;;;;;;;10.05;3.50;;;17.40;92.20;;;17.95;67.70;100661.44;4897104;29;20059;-81
2023/07/14 04:54:00;;;;;;;5.90;3.63;;;17.40;92.60;;;18.00;68.17;100653.38;4912022;29;20080;-82
2023/07/14 04:56:28;;;;;;;8.10;3.72;;;17.40;93.20;;;18.01;67.85;100657.72;4898113;29;20131;-81
2023/07/14 04:58:55;;;;;;;8.40;3.65;;;17.50;93.30;;;18.02;68.47;100663.94;4908555;29;20139;-82
2023/07/14 05:01:24;;;;;;;16.45;4.10;;;17.40;93.40;;;18.00;68.15;100661.47;4900306;29;20048;-81
2023/07/14 05:03:51;;;;;;;8.32;3.72;;;17.50;93.40;;;18.02;68.66;100662.06;4914827;29;20048;-81
2023/07/14 05:06:19;;;;;;;10.35;3.45;;;17.50;93.70;;;18.04;68.60;100664.50;4912786;29;20091;-81
2023/07/14 05:08:46;;;;;;;10.07;3.72;;;17.50;93.90;;;18.05;69.10;100665.28;4912253;29;20077;-80
2023/07/14 05:11:13;;;;;;;7.78;3.65;;;17.50;94.00;;;18.07;68.75;100660.47;4898127;29;20119;-80
2023/07/14 05:13:41;;;;;;;9.20;3.92;;;17.50;93.80;;;18.11;68.64;100661.59;4898636;29;20075;-80
2023/07/14 05:16:08;;;;;;;7.53;3.80;;;17.60;93.60;;;18.15;68.75;100651.88;4896963;29;20567;-80
2023/07/14 05:18:37;;;;;;;8.43;3.60;;;17.60;93.80;;;18.15;68.53;100652.69;4881378;29;20549;-80
2023/07/14 05:21:05;;;;;;;7.68;3.53;;;17.70;93.40;;;18.17;68.97;100657.88;4898022;29;20127;-80
2023/07/14 05:23:34;;;;;;;9.60;3.70;;;17.70;93.90;;;18.19;68.75;100656.53;4897851;29;20486;-80
2023/07/14 05:26:01;;;;;;;8.88;3.83;;;17.70;93.50;;;18.19;68.91;100655.72;4897209;29;20083;-80
2023/07/14 05:28:29;;;;;;;8.00;3.80;;;17.70;93.60;;;18.21;68.84;100654.41;4912261;29;20057;-80
2023/07/14 05:30:56;;;;;;;7.22;3.65;;;17.70;93.80;;;18.25;69.08;100651.97;4897337;29;20056;-81
2023/07/14 05:33:24;;;;;;;8.63;3.25;;;17.80;94.00;;;18.26;69.38;100656.31;4896474;29;20048;-81
2023/07/14 05:35:53;;;;;;;8.27;4.15;;;17.80;93.80;;;18.28;69.10;100651.47;4898088;29;20480;-81
2023/07/14 05:38:20;;;;;;;8.13;3.75;;;17.80;93.90;;;18.31;69.22;100656.38;4898006;29;20045;-81
2023/07/14 05:40:52;;;;;;;7.80;3.30;;;17.80;94.30;;;18.33;69.04;100653.41;4896590;29;20071;-81
2023/07/14 05:43:20;;;;;;;8.35;3.70;;;17.90;94.00;;;18.37;69.25;100658.03;4897971;29;20158;-81
2023/07/14 05:45:48;;;;;;;6.68;3.70;;;17.90;94.10;;;18.38;68.90;100662.34;4898203;29;20104;-80
2023/07/14 05:48:17;;;;;;;10.05;4.03;;;17.90;93.50;;;18.41;68.59;100656.44;4897867;29;20124;-80
2023/07/14 05:50:45;;;;;;;9.57;3.80;;;18.00;93.40;;;18.47;68.61;100660.81;4896574;29;20057;-80
2023/07/14 05:53:16;;;;;;;8.10;3.50;;;18.10;93.50;;;18.55;69.02;100654.13;4912450;29;20151;-80
2023/07/14 05:55:43;;;;;;;8.48;3.80;;;18.10;93.40;;;18.67;68.82;100656.63;4898317;29;20119;-80
2023/07/14 05:58:10;;;;;;;9.20;3.75;;;18.30;93.00;;;18.74;68.12;100651.84;4896237;29;20486;-80
2023/07/14 06:00:38;;;;;;;7.22;3.60;;;18.40;92.40;;;18.86;67.88;100655.16;4896381;29;20143;-80
2023/07/14 06:03:07;;;;;;;10.30;3.85;;;18.60;92.00;;;18.91;67.40;100654.38;4896493;29;20052;-80
2023/07/14 06:05:35;;;;;;;7.97;3.88;;;18.60;91.40;;;18.94;66.85;100664.66;4896398;29;20147;-80
2023/07/14 06:08:03;;;;;;;7.97;4.07;;;18.70;90.70;;;19.08;67.29;100664.97;4897643;29;20045;-80
2023/07/14 06:10:32;;;;;;;7.68;3.50;;;18.80;90.60;;;19.28;67.02;100670.50;4897568;29;20040;-80
2023/07/14 06:13:00;;;;;;;8.55;3.88;;;19.10;90.50;;;19.43;67.48;100661.66;4896244;29;20132;-80
2023/07/14 06:15:28;;;;;;;9.48;3.72;;;19.40;90.60;;;19.58;66.82;100655.47;4897957;29;20116;-80
2023/07/14 06:17:55;;;;;;;12.38;4.43;;;19.50;89.70;;;19.68;66.57;100653.63;4897508;29;20040;-80
2023/07/14 06:20:22;;;;;;;9.43;3.80;;;19.70;89.10;;;19.79;66.18;100651.75;4897510;29;20068;-80
2023/07/14 06:22:51;;;;;;;10.50;4.00;;;19.90;88.80;;;19.89;65.08;100651.75;4914429;29;20510;-80
2023/07/14 06:25:18;;;;;;;11.13;4.00;;;20.00;86.80;;;19.99;66.28;100657.19;4900248;29;20049;-80
2023/07/14 06:27:47;;;;;;;6.38;3.47;;;20.10;88.20;;;20.08;64.93;100653.97;4900142;29;20055;-81
2023/07/14 06:30:15;;;;;;;10.35;3.70;;;20.20;86.30;;;20.17;64.83;100652.34;4901433;29;20564;-81
2023/07/14 06:32:42;;;;;;;10.85;3.75;;;20.30;86.30;;;20.23;64.30;100640.41;4900893;29;20443;-81
2023/07/14 06:35:10;;;;;;;6.30;3.35;;;20.50;85.50;;;20.30;64.29;100639.06;4914428;29;20051;-81
2023/07/14 06:37:38;;;;;;;8.40;3.47;;;20.60;85.60;;;20.41;64.05;100639.88;4915496;29;20682;-81
2023/07/14 06:40:08;;;;;;;10.10;4.03;;;20.70;84.50;;;20.45;64.38;100632.03;4914904;29;20060;-81
2023/07/14 06:42:36;;;;;;;7.07;3.85;;;20.70;85.30;;;20.48;63.13;100628.78;4916285;29;20112;-81
2023/07/14 06:45:06;;;;;;;8.05;3.40;;;20.70;84.30;;;20.56;62.28;100620.91;4900903;29;20123;-81
2023/07/14 06:47:33;;;;;;;10.55;3.83;;;20.80;83.00;;;20.63;62.19;100628.75;4915501;29;20040;-81
2023/07/14 06:50:01;;;;;;;7.88;3.33;;;20.90;81.80;;;20.75;62.09;100623.03;4915048;29;20178;-81
2023/07/14 06:52:28;;;;;;;7.95;3.35;;;21.00;82.40;;;20.75;61.83;100626.56;4899764;29;20063;-81
2023/07/14 06:54:57;;;;;;;11.43;3.30;;;21.10;82.00;;;20.77;61.45;100624.38;4901000;29;20046;-81
2023/07/14 06:57:24;;;;;;;12.63;3.90;;;21.10;81.60;;;20.77;60.43;100618.16;4900983;29;20040;-81
2023/07/14 06:59:52;;;;;;;8.10;3.63;;;21.10;80.30;;;20.82;59.91;100624.38;4900586;29;20076;-81
2023/07/14 07:02:21;;;;;;;10.57;3.30;;;21.10;80.20;;;20.90;59.51;100620.28;4900345;29;20135;-81
2023/07/14 07:04:48;;;;;;;5.78;3.05;;;21.20;79.40;;;20.97;59.79;100619.97;4900860;29;20044;-81
2023/07/14 07:07:15;;;;;;;8.93;2.83;;;21.30;80.10;;;21.02;59.94;100620.78;4915288;29;20417;-81
2023/07/14 07:09:42;;;;;;;7.18;3.00;;;21.40;79.70;;;21.03;60.87;100614.28;4900704;29;20792;-81
2023/07/14 07:12:10;;;;;;;8.73;2.85;;;21.30;80.60;;;21.12;59.09;100619.13;4899483;29;20045;-81
2023/07/14 07:14:37;;;;;;;9.70;3.10;;;21.40;78.40;;;21.18;59.27;100612.56;4899442;29;20059;-81
2023/07/14 07:17:06;;;;;;;10.45;3.15;;;21.50;78.70;;;21.25;58.51;100613.09;4899018;29;20143;-81
2023/07/14 07:19:34;;;;;;;7.32;2.67;;;21.60;78.40;;;21.34;60.29;100617.69;4898871;29;20143;-81
2023/07/14 07:22:01;;;;;;;9.50;2.83;;;21.70;80.20;;;21.37;59.01;100616.31;4900406;29;20136;-81
2023/07/14 07:24:29;;;;;;;7.60;3.42;;;21.70;78.60;;;21.22;58.37;100609.03;4900336;29;20123;-81
2023/07/14 07:26:56;;;;;;;10.30;3.42;;;21.50;78.40;;;21.17;61.01;100608.25;4899520;29;20147;-81
2023/07/14 07:29:24;;;;;;;6.18;3.33;;;21.40;80.80;;;21.22;59.48;100602.78;4900011;29;20068;-81
2023/07/14 07:31:51;;;;;;;7.68;2.58;;;21.40;78.70;;;21.25;59.51;100608.47;4900493;29;20097;-81
2023/07/14 07:34:18;;;;;;;9.75;3.40;;;21.50;79.30;;;21.30;59.70;100605.75;4898613;29;20394;-81
2023/07/14 07:36:47;;;;;;;8.40;3.25;;;21.50;79.40;;;21.23;59.28;100599.00;4900484;29;20057;-81
2023/07/14 07:39:14;;;;;;;6.22;2.45;;;21.40;79.00;;;21.16;59.42;100595.78;4900042;29;20120;-81
2023/07/14 07:41:41;;;;;;;9.07;3.67;;;21.30;79.20;;;21.25;59.51;100602.25;4900504;29;20055;-81
2023/07/14 07:44:10;;;;;;;11.40;3.15;;;21.40;79.60;;;21.38;59.39;100595.44;4900369;29;20163;-81
2023/07/14 07:46:37;;;;;;;8.43;2.90;;;21.50;79.40;;;21.44;58.68;100597.81;4900331;29;20494;-81
2023/07/14 07:49:05;;;;;;;9.43;3.20;;;21.70;78.70;;;21.49;59.28;100595.09;4900116;29;20144;-81
2023/07/14 07:51:32;;;;;;;11.48;3.50;;;21.80;78.70;;;21.52;58.16;100596.41;4899649;29;20879;-81
2023/07/14 07:54:01;;;;;;;7.35;2.65;;;21.80;77.20;;;21.55;57.73;100582.28;4900040;29;20049;-81
2023/07/14 07:56:29;;;;;;;9.00;2.78;;;21.80;76.80;;;21.59;56.88;100586.06;4898611;29;20063;-81
2023/07/14 07:58:56;;;;;;;8.68;3.03;;;21.90;76.20;;;21.69;58.81;100586.00;4899651;29;20410;-81
2023/07/14 08:01:26;;;;;;;11.00;2.92;;;22.00;77.90;;;21.69;57.87;100575.13;4899391;29;20459;-81
2023/07/14 08:03:53;;;;;;;8.85;3.00;;;22.00;77.10;;;21.68;58.13;100578.94;4900406;29;20044;-81
2023/07/14 08:06:24;;;;;;;6.30;2.70;;;22.00;77.60;;;21.60;56.37;100580.34;4900581;29;20127;-81
2023/07/14 08:08:52;;;;;;;6.03;2.60;;;21.90;75.50;;;21.49;57.42;100570.66;4899683;29;20063;-81
2023/07/14 08:11:20;;;;;;;8.73;2.83;;;21.70;76.60;;;21.45;56.45;100574.22;4898817;29;20667;-81
2023/07/14 08:13:48;;;;;;;8.23;3.03;;;21.70;75.80;;;21.46;56.54;100573.13;4900307;29;20105;-81
2023/07/14 08:16:17;;;;;;;5.82;2.75;;;21.60;75.90;;;21.52;57.27;100575.53;4900576;29;20120;-81
2023/07/14 08:18:44;;;;;;;6.93;2.72;;;21.70;76.60;;;21.56;55.93;100575.75;4898245;29;20049;-81
2023/07/14 08:21:11;;;;;;;6.47;2.63;;;21.80;75.20;;;21.67;58.67;100569.19;4898417;29;20580;-81
2023/07/14 08:23:40;;;;;;;6.95;2.60;;;21.90;78.20;;;21.67;56.13;100571.91;4898665;29;20076;-81
2023/07/14 08:26:08;;;;;;;6.00;2.38;;;21.90;75.60;;;21.60;56.37;100572.19;4914272;29;20056;-81
2023/07/14 08:28:37;;;;;;;6.68;2.60;;;21.80;75.30;;;21.65;56.49;100565.13;4897922;29;20049;-81
2023/07/14 08:31:07;;;;;;;6.82;2.40;;;21.90;75.70;;;21.71;56.34;100561.25;4899694;29;20068;-81
2023/07/14 08:33:35;;;;;;;7.45;2.60;;;21.90;74.80;;;21.74;56.58;100561.53;4899596;29;20069;-81
2023/07/14 08:36:05;;;;;;;5.30;2.30;;;22.00;75.60;;;21.78;55.78;100561.78;4897879;29;20143;-81
2023/07/14 08:38:35;;;;;;;6.03;2.38;;;22.00;74.40;;;21.82;54.79;100557.41;4897806;29;20135;-81
2023/07/14 08:41:12;;;;;;;5.53;2.30;;;22.10;73.80;;;21.82;54.36;100557.41;4913639;29;20068;-81
2023/07/14 08:43:58;;;;;;;6.80;2.60;;;22.10;73.10;;;21.83;54.54;100559.00;4899533;29;20053;-81
2023/07/14 08:46:37;;;;;;;6.95;2.60;;;22.10;73.50;;;21.95;54.55;100558.63;4897834;29;20056;-81
2023/07/14 08:49:23;;;;;;;5.90;2.50;;;22.20;73.10;;;22.02;52.05;100551.78;4897846;29;20152;-81
2023/07/14 08:51:56;;;;;;;4.78;2.35;;;22.30;69.70;;;22.12;54.88;100553.63;4897862;29;20218;-81
2023/07/14 08:54:32;;;;;;;6.95;2.70;;;22.50;72.70;;;22.20;51.32;100542.13;4899033;29;20057;-81
2023/07/14 08:57:00;;;;;;;6.60;2.00;;;22.60;69.10;;;22.27;52.34;100550.75;4898336;29;20462;-81
2023/07/14 08:59:35;;;;;;;6.25;2.30;;;22.60;70.30;;;22.36;52.79;100553.66;4913350;29;20143;-81
2023/07/14 09:02:22;;;;;;;6.10;2.33;;;22.80;70.30;;;22.40;53.45;100552.00;4898047;29;20565;-81
2023/07/14 09:04:59;;;;;;;9.18;2.20;;;22.80;70.90;;;22.43;49.57;100545.16;4898623;29;20048;-81
2023/07/14 09:07:26;;;;;;;8.25;2.40;;;22.80;66.40;;;22.32;52.40;100545.28;4955506;23;20572;-86
2023/07/14 09:09:54;;;;;;;5.10;2.00;;;22.70;69.90;;;22.23;53.83;100536.13;4955514;28;20055;-85
2023/07/14 09:12:34;;;;;;;4.65;1.98;;;22.50;71.60;;;22.11;52.17;100538.44;4954773;28;20078;-85
2023/07/14 09:15:07;;;;;;;5.90;2.35;;;22.40;69.90;;;22.12;52.44;100540.06;4954613;28;20043;-85
2023/07/14 09:17:53;;;;;;;5.50;2.10;;;22.40;70.10;;;22.21;54.85;100538.34;4956134;28;20130;-84
2023/07/14 09:21:06;;;;;;;6.43;2.58;;;22.50;72.50;;;22.44;54.21;100533.19;4955641;28;20130;-84
2023/07/14 09:24:08;;;;;;;5.38;2.53;;;22.80;72.50;;;22.41;53.80;100537.31;4899565;29;20471;-85
2023/07/14 09:26:41;;;;;;;5.70;2.38;;;22.80;70.90;;;22.53;53.99;100532.28;4896502;29;20443;-85
2023/07/14 09:29:16;;;;;;;7.22;2.38;;;22.90;71.50;;;22.70;52.55;100533.72;4945359;28;20150;-84
2023/07/14 09:31:54;;;;;;;5.65;2.38;;;23.10;69.90;;;22.53;51.11;100518.69;4956250;29;20053;-85
2023/07/14 09:34:28;;;;;;;6.00;2.47;;;23.00;68.20;;;22.43;53.10;100524.22;4954699;29;20051;-84
2023/07/14 09:36:56;;;;;;;7.30;2.83;;;22.80;70.70;;;22.47;53.02;100524.47;4955908;29;20130;-84
2023/07/14 09:39:30;;;;;;;7.80;2.85;;;22.80;70.40;;;22.56;51.08;100518.09;4955558;28;20043;-84
2023/07/14 09:42:01;;;;;;;7.45;2.50;;;22.90;68.50;;;22.57;50.63;100517.00;4954438;28;20504;-85
2023/07/14 09:44:29;;;;;;;5.72;2.60;;;22.90;67.90;;;22.53;53.00;100524.13;4955469;29;20106;-85
2023/07/14 09:47:00;;;;;;;7.68;2.53;;;22.90;70.10;;;22.45;50.26;100522.06;4955754;29;20044;-85
2023/07/14 09:49:38;;;;;;;10.15;2.65;;;22.80;67.20;;;22.45;51.25;100519.34;4953722;28;20102;-85
2023/07/14 09:52:15;;;;;;;6.97;2.70;;;22.80;68.10;;;22.63;54.80;100518.56;4955168;28;20130;-84
2023/07/14 09:54:50;;;;;;;5.60;2.95;;;23.00;72.10;;;22.71;52.58;100510.88;4953604;29;20078;-85
2023/07/14 09:57:20;;;;;;;7.22;3.10;;;23.10;69.80;;;22.80;56.08;100518.09;4956494;28;20058;-85
2023/07/14 09:59:55;;;;;;;6.22;2.47;;;23.20;73.00;;;22.92;53.31;100504.09;4959313;28;20129;-85
2023/07/14 10:02:30;;;;;;;6.65;2.70;;;23.30;70.50;;;23.05;50.79;100503.38;4957963;28;20067;-85
2023/07/14 10:05:03;;;;;;;6.57;2.42;;;23.50;67.90;;;23.10;51.52;100488.88;4958955;28;20071;-85
2023/07/14 10:07:42;;;;;;;7.40;2.80;;;23.50;68.00;;;23.10;51.93;100488.88;4958546;28;20062;-85
2023/07/14 10:10:14;;;;;;;6.10;2.60;;;23.60;68.30;;;23.08;48.35;100491.06;4963142;28;20075;-84
2023/07/14 10:12:47;;;;;;;9.95;3.05;;;23.50;64.60;;;23.03;48.83;100485.69;4978990;28;20095;-84
2023/07/14 10:15:33;;;;;;;10.15;2.67;;;23.40;64.70;;;23.07;51.08;100479.38;4976425;28;20066;-83
2023/07/14 10:18:07;;;;;;;7.28;2.92;;;23.40;67.20;;;23.15;50.37;100480.63;4976462;29;20057;-84
2023/07/14 10:20:35;;;;;;;6.22;2.65;;;23.50;66.30;;;23.20;49.75;100471.59;4967398;29;20097;-85
2023/07/14 10:23:02;;;;;;;8.10;3.00;;;23.60;66.80;;;23.20;50.13;100460.72;4959660;28;20043;-85
2023/07/14 10:25:31;;;;;;;7.47;3.28;;;23.60;65.90;;;23.16;49.83;100473.28;4926144;29;20123;-85